Time;durP1;ratioP1;P1;durP2;ratioP2;P2;SDS_P1;SDS_P2;PMS_P1;PMS_P2;Temp;Humidity;BMP_temperature;BMP_pressure;BME280_temperature;BME280_humidity;BME280_pressure;Samples;Min_cycle;Max_cycle;Signal;HPM_P1;HPM_P2
2021/12/08 00:01:26;;;;;;;9.70;4.07;;;;;;;-5.98;100.00;98589.03;10445877;28;20029;-86
2021/12/08 00:06:26;;;;;;;15.87;4.87;;;;;;;-1.01;100.00;99274.16;10446072;28;20044;-87
2021/12/08 00:16:51;;;;;;;8.97;4.20;;;;;;;-1.99;100.00;99156.56;10486024;28;20116;-89
2021/12/08 00:22:14;;;;;;;11.83;4.80;;;;;;;-6.34;100.00;98284.97;10470510;28;20381;-89
2021/12/08 00:27:17;;;;;;;11.80;4.80;;;;;;;-4.07;100.00;98837.91;10459898;28;20036;-93
2021/12/08 00:32:28;;;;;;;18.73;7.10;;;;;;;-3.29;100.00;98949.22;10471491;28;20106;-92
2021/12/08 00:37:40;;;;;;;14.97;5.50;;;;;;;-4.17;100.00;98764.97;10471762;28;20113;-91
2021/12/08 00:42:43;;;;;;;13.80;5.43;;;;;;;-4.70;100.00;98642.38;10470398;28;20032;-88
2021/12/08 00:47:47;;;;;;;21.10;5.90;;;;;;;-4.53;100.00;98593.56;10469887;28;20035;-88
2021/12/08 00:52:51;;;;;;;18.27;5.80;;;;;;;-5.29;100.00;98412.63;10437404;28;20047;-87
2021/12/08 00:57:54;;;;;;;11.13;5.00;;;;;;;-4.23;100.00;98767.69;10452601;28;20271;-88
2021/12/08 01:02:55;;;;;;;15.00;4.70;;;;;;;-4.63;100.00;98639.69;10482464;28;20039;-91
2021/12/08 01:08:00;;;;;;;12.63;6.25;;;;;;;-2.42;100.00;98865.28;10473510;28;20032;-91
2021/12/08 01:13:04;;;;;;;14.30;4.77;;;;;;;-1.10;100.00;99310.56;10417669;28;20052;-92
2021/12/08 01:18:04;;;;;;;13.70;4.70;;;;;;;-1.50;100.00;98987.72;10412219;28;20127;-90
2021/12/08 01:23:07;;;;;;;10.83;4.13;;;;;;;-2.60;100.00;99008.81;10411891;28;20036;-92
2021/12/08 01:28:11;;;;;;;13.68;4.25;;;;;;;-3.64;100.00;98664.44;10443497;28;20384;-91
2021/12/08 01:33:14;;;;;;;12.77;3.97;;;;;;;-5.22;100.00;98619.16;10412162;28;20051;-91
2021/12/08 01:38:17;;;;;;;8.67;4.00;;;;;;;-3.51;100.00;98798.84;10412371;28;20037;-91
2021/12/08 01:43:29;;;;;;;6.80;3.73;;;;;;;-4.95;100.00;98631.47;10427186;28;20038;-89
2021/12/08 01:48:31;;;;;;;10.23;3.70;;;;;;;-3.64;100.00;98761.25;10412922;28;20029;-87
2021/12/08 01:53:32;;;;;;;13.00;4.67;;;;;;;-2.83;100.00;98854.00;10408775;28;20098;-87
2021/12/08 01:58:32;;;;;;;8.03;3.87;;;;;;;-2.71;100.00;98690.66;10409023;28;20366;-86
2021/12/08 02:03:35;;;;;;;12.83;3.63;;;;;;;1.22;100.00;99585.75;10441880;28;20045;-91
2021/12/08 02:08:36;;;;;;;7.17;3.73;;;;;;;-1.54;100.00;99120.63;10410594;28;20086;-92
2021/12/08 02:13:39;;;;;;;11.20;3.93;;;;;;;-4.41;100.00;98658.19;10468284;28;20140;-91
2021/12/08 02:18:40;;;;;;;7.67;4.50;;;;;;;-3.22;100.00;98710.53;10448767;28;20442;-86
2021/12/08 02:23:41;;;;;;;11.33;5.27;;;;;;;-3.49;100.00;98812.91;10465823;28;20032;-91
2021/12/08 02:28:43;;;;;;;7.80;4.50;;;;;;;-1.65;100.00;98855.03;10466738;28;20048;-91
2021/12/08 02:49:42;;;;;;;9.23;4.43;;;;;;;-4.91;100.00;98434.13;10485688;28;20024;-91
2021/12/08 02:54:45;;;;;;;8.83;5.30;;;;;;;-3.40;100.00;98551.72;10449665;28;20126;-91
2021/12/08 02:59:46;;;;;;;15.33;5.50;;;;;;;-3.48;100.00;98556.31;10466134;28;20028;-91
2021/12/08 03:04:55;;;;;;;12.33;6.07;;;;;;;-5.02;100.00;98345.41;10466463;28;20059;-86
2021/12/08 03:10:03;;;;;;;10.23;5.20;;;;;;;-3.18;100.00;98561.03;10464399;28;20079;-91
2021/12/08 03:15:05;;;;;;;12.77;5.83;;;;;;;-2.24;100.00;98895.81;10465018;28;20040;-86
2021/12/08 03:20:08;;;;;;;15.43;6.23;;;;;;;-3.57;100.00;98546.06;10446383;28;20024;-87
2021/12/08 03:25:12;;;;;;;10.70;6.40;;;;;;;-2.13;100.00;98739.78;10450691;28;20499;-91
2021/12/08 03:30:20;;;;;;;10.80;6.20;;;;;;;-1.50;100.00;98868.97;10434245;28;20111;-91
2021/12/08 03:35:22;;;;;;;8.63;5.97;;;;;;;-2.51;100.00;98748.88;10435620;28;20041;-87
2021/12/08 03:40:24;;;;;;;11.33;6.23;;;;;;;-3.83;100.00;98600.88;10481673;28;20025;-91
2021/12/08 03:45:33;;;;;;;14.00;7.60;;;;;;;-2.76;100.00;98770.44;10449248;28;20101;-91
2021/12/08 03:50:38;;;;;;;11.05;6.13;;;;;;;-4.33;100.00;98591.63;10434417;28;20025;-91
2021/12/08 03:55:43;;;;;;;12.63;6.83;;;;;;;-0.90;100.00;98892.53;10473559;28;20028;-90
2021/12/08 04:00:47;;;;;;;14.77;7.77;;;;;;;-3.41;100.00;98692.63;10471787;28;20052;-86
2021/12/08 04:10:54;;;;;;;;;;;;;;;2.00;100.00;99301.88;10487804;28;20400;-87
2021/12/08 04:15:54;;;;;;;12.93;7.40;;;;;;;2.06;100.00;99602.25;10454239;28;19919;-91
2021/12/08 04:20:57;;;;;;;13.53;7.60;;;;;;;-2.27;100.00;98721.06;10472732;28;20068;-91
2021/12/08 04:25:58;;;;;;;15.00;7.97;;;;;;;-3.43;100.00;98504.56;10471458;28;20032;-90
2021/12/08 04:31:05;;;;;;;16.10;9.00;;;;;;;-3.49;100.00;98592.34;10471884;28;20178;-90
2021/12/08 04:36:08;;;;;;;12.77;8.50;;;;;;;-0.15;100.00;99091.38;10471692;28;20072;-91
2021/12/08 04:41:12;;;;;;;14.87;9.63;;;;;;;-2.18;100.00;98772.81;10440129;28;20127;-91
2021/12/08 04:46:41;;;;;;;17.00;9.10;;;;;;;-0.35;100.00;99134.06;10439390;28;20078;-91
2021/12/08 05:12:22;;;;;;;20.87;12.20;;;;;;;-2.07;100.00;98755.91;10468359;28;20049;-87
2021/12/08 05:17:30;;;;;;;15.97;10.73;;;;;;;-2.33;100.00;98629.53;10451902;28;20513;-88
2021/12/08 05:22:33;;;;;;;16.43;10.73;;;;;;;0.81;100.00;99237.69;10469127;28;20032;-88
2021/12/08 05:27:40;;;;;;;22.27;13.37;;;;;;;2.73;100.00;99470.81;10436305;28;20094;-91
2021/12/08 05:32:40;;;;;;;21.13;12.25;;;;;;;-3.90;100.00;98278.34;10437244;28;20037;-90
2021/12/08 05:37:41;;;;;;;18.15;13.75;;;;;;;-2.75;100.00;98659.81;10435774;28;20060;-87
2021/12/08 05:42:41;;;;;;;23.20;13.03;;;;;;;-2.83;100.00;98692.41;10450244;28;20035;-87
2021/12/08 05:47:42;;;;;;;20.83;12.90;;;;;;;-2.70;100.00;98729.97;10467053;28;20396;-87
2021/12/08 05:52:43;;;;;;;20.60;14.00;;;;;;;1.41;100.00;99365.03;10482902;28;20028;-86
2021/12/08 05:57:44;;;;;;;22.50;12.97;;;;;;;-0.10;100.00;99013.06;10465972;28;20037;-87
2021/12/08 06:02:45;;;;;;;19.23;13.00;;;;;;;-1.84;100.00;98906.28;10450128;28;20083;-87
2021/12/08 06:07:45;;;;;;;19.23;12.33;;;;;;;-2.42;100.00;98665.88;10448921;28;20040;-87
2021/12/08 06:12:48;;;;;;;19.53;12.27;;;;;;;-2.33;100.00;98813.59;10424112;28;20056;-87
2021/12/08 06:17:49;;;;;;;23.90;12.33;;;;;;;-1.74;100.00;98888.75;10440872;28;20052;-87
2021/12/08 06:22:51;;;;;;;22.38;11.98;;;;;;;-2.19;100.00;98651.72;10422849;28;20083;-87
2021/12/08 06:27:52;;;;;;;20.00;11.50;;;;;;;-3.71;100.00;98491.56;10409457;28;20457;-90
2021/12/08 06:32:52;;;;;;;24.87;12.73;;;;;;;-3.19;100.00;98701.19;10410820;28;20024;-88
2021/12/08 06:37:53;;;;;;;21.33;10.97;;;;;;;-2.11;100.00;98938.03;10411983;28;20500;-92
2021/12/08 06:42:56;;;;;;;18.57;12.00;;;;;;;-3.53;100.00;98504.25;10410309;28;20128;-89
2021/12/08 06:47:58;;;;;;;17.65;11.45;;;;;;;0.28;100.00;99127.44;10406337;28;20071;-89
2021/12/08 06:53:01;;;;;;;21.23;12.33;;;;;;;-1.66;100.00;98988.28;10423804;28;20508;-89
2021/12/08 06:58:05;;;;;;;18.27;11.45;;;;;;;-3.80;100.00;98560.94;10407987;28;20045;-89
2021/12/08 07:08:24;;;;;;;22.00;10.65;;;;;;;-1.74;100.00;98853.69;10442456;28;20025;-88
2021/12/08 07:13:26;;;;;;;16.92;10.18;;;;;;;2.57;100.00;99715.00;10404386;28;20497;-88
2021/12/08 07:18:50;;;;;;;16.87;10.27;;;;;;;-2.40;100.00;98785.06;10405014;28;20051;-88
2021/12/08 07:23:54;;;;;;;24.98;12.82;;;;;;;-1.65;100.00;98979.16;10425464;28;20025;-87
2021/12/08 07:28:57;;;;;;;25.67;13.73;;;;;;;-2.44;100.00;98870.88;10405969;28;20112;-88
2021/12/08 07:34:03;;;;;;;19.50;11.10;;;;;;;-0.23;100.00;99230.47;10420777;28;20135;-87
2021/12/08 07:39:07;;;;;;;22.88;12.05;;;;;;;-1.23;100.00;99006.34;10421636;28;20033;-87
2021/12/08 07:44:09;;;;;;;20.20;10.90;;;;;;;-2.18;100.00;98947.22;10405813;28;20091;-89
2021/12/08 07:49:13;;;;;;;20.67;10.90;;;;;;;-1.45;100.00;98977.09;10405060;28;20029;-90
2021/12/08 07:54:14;;;;;;;17.50;10.43;;;;;;;-2.33;100.00;98891.75;10406085;28;20041;-88
2021/12/08 07:59:18;;;;;;;22.20;10.90;;;;;;;-3.58;100.00;98642.06;10405582;28;20468;-88
2021/12/08 08:04:24;;;;;;;18.83;9.87;;;;;;;-1.97;100.00;99094.34;10421860;28;20029;-88
2021/12/08 08:09:27;;;;;;;20.43;9.50;;;;;;;-1.21;100.00;98963.75;10420575;28;20025;-88
2021/12/08 08:14:39;;;;;;;17.88;9.50;;;;;;;-0.47;100.00;99267.28;10422996;28;20044;-90
2021/12/08 08:19:47;;;;;;;18.00;9.60;;;;;;;-1.04;100.00;99121.44;10423136;28;20041;-89
2021/12/08 08:24:49;;;;;;;14.27;8.27;;;;;;;-1.22;100.00;98981.00;10412569;28;20055;-90
2021/12/08 08:29:50;;;;;;;18.93;8.37;;;;;;;-1.77;100.00;98878.41;10439514;28;20036;-91
2021/12/08 08:34:57;;;;;;;18.67;8.30;;;;;;;-2.02;100.00;99089.59;10423521;28;20040;-91
2021/12/08 08:39:59;;;;;;;16.40;7.83;;;;;;;-3.27;100.00;98680.75;10427280;28;20029;-88
2021/12/08 08:45:05;;;;;;;19.70;7.97;;;;;;;-3.36;100.00;98752.03;10411375;28;20049;-89
2021/12/08 08:50:08;;;;;;;15.88;7.05;;;;;;;-3.85;100.00;98599.19;10411309;28;20405;-88
2021/12/08 08:55:17;;;;;;;13.40;6.07;;;;;;;-4.75;100.00;98384.47;10443612;28;20032;-89
2021/12/08 09:00:25;;;;;;;25.95;7.57;;;;;;;-1.59;100.00;98937.78;10410878;28;20037;-87
2021/12/08 09:05:33;;;;;;;14.45;5.85;;;;;;;-1.89;100.00;98951.94;10409751;28;20048;-86
2021/12/08 09:10:49;;;;;;;12.73;5.43;;;;;;;-1.31;100.00;98963.44;10413783;28;20458;-89
2021/12/08 09:15:53;;;;;;;13.52;4.60;;;;;;;-3.57;100.00;98702.88;10467715;28;20036;-88
2021/12/08 09:21:00;;;;;;;10.18;4.47;;;;;;;-0.86;100.00;99034.22;10467262;28;20040;-88
2021/12/08 09:26:08;;;;;;;16.90;4.32;;;;;;;1.92;100.00;99456.94;10451033;28;20036;-89
2021/12/08 09:31:34;;;;;;;14.32;4.30;;;;;;;1.17;100.00;99384.97;10470629;28;20496;-91
2021/12/08 09:36:57;;;;;;;12.57;3.70;;;;;;;-0.75;100.00;99019.13;10444843;28;20036;-91
2021/12/08 09:42:07;;;;;;;11.23;3.17;;;;;;;0.16;100.00;99103.84;10467629;28;20041;-89
2021/12/08 09:47:43;;;;;;;;;;;;;;;;;;;;;
2021/12/08 09:53:05;;;;;;;9.20;3.03;;;;;;;0.98;100.00;99268.50;10467950;28;20036;-89
2021/12/08 09:58:09;;;;;;;10.35;2.50;;;;;;;-1.75;100.00;98914.09;10434314;28;20044;-89
2021/12/08 10:03:12;;;;;;;11.75;2.40;;;;;;;-0.97;100.00;98810.78;10450689;28;20477;-91
2021/12/08 10:08:13;;;;;;;8.77;3.47;;;;;;;-0.88;100.00;99008.47;10435515;28;20028;-91
2021/12/08 10:13:14;;;;;;;7.80;2.50;;;;;;;0.87;100.00;99179.88;10424545;28;20135;-89
2021/12/08 10:18:15;;;;;;;9.68;2.20;;;;;;;-0.68;100.00;98936.09;10424182;28;20542;-88
2021/12/08 10:23:28;;;;;;;19.90;3.13;;;;;;;-0.33;100.00;98970.56;10424837;28;20116;-89
2021/12/08 10:28:39;;;;;;;14.27;2.17;;;;;;;4.80;100.00;99595.16;10410552;28;20033;-91
2021/12/08 10:34:02;;;;;;;11.70;3.13;;;;;;;-1.08;100.00;98736.75;10424765;28;20481;-90
2021/12/08 10:39:25;;;;;;;12.20;2.78;;;;;;;2.49;100.00;99274.41;10396004;28;20091;-91
2021/12/08 10:44:36;;;;;;;12.98;3.85;;;;;;;-2.93;100.00;98487.47;10424814;28;20489;-88
2021/12/08 10:55:09;;;;;;;8.98;3.03;;;;;;;3.06;100.00;99268.16;10425348;28;20119;-92
2021/12/08 11:07:33;;;;;;;;;;;;;;;;;;;;;
2021/12/08 11:13:45;;;;;;;;;;;;;;;;;;;;;
2021/12/08 11:19:21;;;;;;;;;;;;;;;;;;;;;
2021/12/08 11:25:15;;;;;;;;;;;;;;;;;;;;;
2021/12/08 11:38:04;;;;;;;8.88;2.40;;;;;;;-2.00;100.00;98409.88;10251692;29;20043;-92
2021/12/08 11:57:22;;;;;;;6.60;2.75;;;;;;;-0.42;100.00;98864.59;10385715;28;20062;-91
2021/12/08 12:03:09;;;;;;;5.35;1.33;;;;;;;0.59;100.00;99067.59;10328688;28;20049;-90
2021/12/08 12:08:33;;;;;;;6.25;1.92;;;;;;;-0.78;100.00;98638.63;10352182;28;20113;-91
2021/12/08 12:20:57;;;;;;;10.48;4.43;;;;;;;-0.03;100.00;98877.72;10378677;28;20120;-92
2021/12/08 12:26:28;;;;;;;6.60;2.67;;;;;;;4.95;100.00;99644.50;10279996;28;20083;-90
2021/12/08 12:39:05;;;;;;;;;;;;;;;;;;;;;
2021/12/08 12:44:55;;;;;;;7.93;1.98;;;;;;;1.75;100.00;99273.09;10379088;28;20049;-90
2021/12/08 12:50:06;;;;;;;7.60;2.55;;;;;;;3.70;100.00;99505.50;10309150;28;20034;-90
2021/12/08 12:55:09;;;;;;;12.18;2.80;;;;;;;3.99;100.00;99600.78;10306550;28;20054;-91
2021/12/08 13:00:33;;;;;;;7.88;1.80;;;;;;;-0.92;100.00;98788.47;10275598;28;20046;-88
2021/12/08 13:05:53;;;;;;;5.93;1.95;;;;;;;0.92;100.00;99123.09;10289833;28;20027;-89
2021/12/08 13:11:04;;;;;;;4.70;1.42;;;;;;;3.46;100.00;99639.97;10278110;28;20180;-91
2021/12/08 13:16:45;;;;;;;5.80;1.75;;;;;;;4.91;100.00;99700.59;10308788;28;20511;-89
2021/12/08 13:21:59;;;;;;;7.85;2.05;;;;;;;2.01;100.00;99311.69;10287595;28;20041;-89
2021/12/08 13:27:29;;;;;;;9.20;1.90;;;;;;;-2.18;100.00;98576.03;10275383;28;20038;-90
2021/12/08 13:33:06;;;;;;;;;;;;;;;;;;;;;
2021/12/08 13:38:44;;;;;;;10.15;1.92;;;;;;;0.90;100.00;99222.75;10261859;28;20417;-91
2021/12/08 13:44:55;;;;;;;8.88;3.17;;;;;;;-3.09;100.00;98457.41;10292232;28;20182;-94
2021/12/08 13:50:19;;;;;;;;;;;;;;;;;;;;;
2021/12/08 13:55:45;;;;;;;6.57;1.52;;;;;;;-1.72;100.00;98757.16;10161357;29;20058;-92
2021/12/08 14:00:54;;;;;;;8.45;1.50;;;;;;;-1.47;100.00;98814.56;10267608;28;20059;-92
2021/12/08 14:06:00;;;;;;;7.40;1.65;;;;;;;-1.39;100.00;98802.59;10291389;28;20039;-93
2021/12/08 14:17:29;;;;;;;;;;;;;;;;;;;;;
2021/12/08 14:22:55;;;;;;;;;;;;;;;;;;;;;
2021/12/08 14:28:26;;;;;;;6.10;1.70;;;;;;;3.01;100.00;99486.38;10307755;28;20032;-91
2021/12/08 14:33:29;;;;;;;11.13;2.28;;;;;;;1.58;100.00;99274.84;10303263;28;20053;-94
2021/12/08 14:38:33;;;;;;;13.07;2.92;;;;;;;-0.96;100.00;98889.94;10304632;28;20073;-92
2021/12/08 14:43:35;;;;;;;6.63;1.55;;;;;;;1.04;100.00;99303.88;10290639;28;20085;-91
2021/12/08 14:48:38;;;;;;;8.40;1.48;;;;;;;2.83;100.00;99692.06;10287218;28;20505;-93
2021/12/08 14:53:39;;;;;;;9.77;1.77;;;;;;;4.06;100.00;99808.47;10280329;28;20043;-90
2021/12/08 14:58:39;;;;;;;7.75;1.75;;;;;;;0.68;100.00;99516.84;10270910;28;20046;-92
2021/12/08 15:03:46;;;;;;;14.85;2.10;;;;;;;-2.14;100.00;98903.41;10303183;28;20038;-91
2021/12/08 15:08:49;;;;;;;6.07;1.80;;;;;;;0.95;100.00;99420.72;10286645;28;20117;-90
2021/12/08 15:13:50;;;;;;;10.88;2.60;;;;;;;3.12;100.00;99892.63;10286536;28;20092;-91
2021/12/08 15:18:53;;;;;;;10.80;3.05;;;;;;;-2.20;100.00;99119.97;10305471;28;20045;-93
2021/12/08 15:24:04;;;;;;;7.17;2.53;;;;;;;-1.32;100.00;99283.91;10289383;28;20517;-91
2021/12/08 15:29:06;;;;;;;11.57;3.07;;;;;;;-3.71;100.00;98997.13;10286284;28;20061;-91
2021/12/08 15:34:19;;;;;;;13.30;3.65;;;;;;;-1.95;100.00;99159.69;10286045;28;20068;-90
2021/12/08 15:39:26;;;;;;;9.73;3.57;;;;;;;-2.90;100.00;99095.53;10285671;28;20042;-92
2021/12/08 15:44:27;;;;;;;14.23;4.20;;;;;;;0.04;100.00;99554.00;10285737;28;20368;-91
2021/12/08 15:49:39;;;;;;;;;;;;;;;;;;;;;
2021/12/08 15:54:44;;;;;;;12.23;4.33;;;;;;;-1.47;100.00;99353.53;10329538;28;20050;-92
2021/12/08 15:59:53;;;;;;;8.57;3.40;;;;;;;-3.54;100.00;99207.34;10280049;28;20439;-92
2021/12/08 16:04:57;;;;;;;10.63;4.20;;;;;;;1.56;100.00;99801.31;10304227;28;20037;-89
2021/12/08 16:16:30;;;;;;;9.50;3.20;;;;;;;-2.75;100.00;99405.03;10353935;28;20038;-92
2021/12/08 16:28:15;;;;;;;8.43;3.67;;;;;;;-2.95;100.00;99246.13;10367511;28;20026;-92
2021/12/08 16:33:36;;;;;;;12.00;3.13;;;;;;;-1.02;100.00;99621.78;10274518;28;20038;-93
2021/12/08 16:39:09;;;;;;;6.83;3.33;;;;;;;1.46;100.00;99873.41;10303860;28;20026;-94
2021/12/08 16:44:47;;;;;;;10.67;4.20;;;;;;;-1.69;100.00;99606.63;10309444;28;20096;-94
2021/12/08 16:50:15;;;;;;;9.80;2.80;;;;;;;-3.06;100.00;99237.63;10125703;29;20075;-91
2021/12/08 16:55:16;;;;;;;10.73;3.77;;;;;;;-3.62;100.00;99340.13;10094612;29;20060;-94
2021/12/08 17:00:36;;;;;;;10.63;2.88;;;;;;;-2.46;100.00;99541.28;10142568;29;20049;-90
2021/12/08 17:05:58;;;;;;;;;;;;;;;;;;;;;
2021/12/08 17:12:03;;;;;;;;;;;;;;;;;;;;;
2021/12/08 17:17:33;;;;;;;7.03;3.27;;;;;;;-4.12;100.00;99331.38;10287412;28;20054;-92
2021/12/08 17:22:59;;;;;;;14.50;3.63;;;;;;;-5.09;100.00;99136.97;10262507;28;20558;-91
2021/12/08 17:28:23;;;;;;;11.13;4.00;;;;;;;-5.23;100.00;99042.13;10268329;28;20098;-92
2021/12/08 17:33:24;;;;;;;12.03;4.37;;;;;;;-4.01;100.00;99244.84;10267736;28;20037;-91
2021/12/08 17:38:35;;;;;;;10.80;4.07;;;;;;;0.68;100.00;100172.41;10267679;28;20035;-94
2021/12/08 17:43:36;;;;;;;10.93;4.53;;;;;;;-1.03;100.00;99905.66;10250551;28;20042;-92
2021/12/08 17:48:40;;;;;;;12.57;4.57;;;;;;;-6.71;100.00;98894.69;10265779;28;20047;-93
2021/12/08 17:53:54;;;;;;;14.40;5.93;;;;;;;-4.00;100.00;99434.66;10249509;28;20055;-92
2021/12/08 17:59:07;;;;;;;;;;;;;;;;;;;;;
2021/12/08 18:04:41;;;;;;;14.70;6.40;;;;;;;-2.35;100.00;99535.31;10282232;28;20039;-91
2021/12/08 18:09:41;;;;;;;16.90;6.43;;;;;;;-5.71;100.00;98921.38;10264150;28;20031;-92
2021/12/08 18:15:04;;;;;;;17.57;5.87;;;;;;;-2.78;100.00;99588.63;10263591;28;20049;-93
2021/12/08 18:20:14;;;;;;;26.20;6.70;;;;;;;-4.23;100.00;99256.72;10249190;28;20121;-92
2021/12/08 18:25:18;;;;;;;15.70;7.07;;;;;;;-2.59;100.00;99573.59;10250540;28;20034;-93
2021/12/08 18:30:21;;;;;;;19.33;5.93;;;;;;;-1.30;100.00;99808.34;10263772;28;20047;-92
2021/12/08 18:35:49;;;;;;;10.43;5.23;;;;;;;-2.80;100.00;99523.34;10247935;28;20043;-91
2021/12/08 18:40:50;;;;;;;10.10;5.73;;;;;;;-3.97;100.00;99501.50;10263799;28;20035;-92
2021/12/08 18:45:51;;;;;;;11.53;6.07;;;;;;;-3.83;100.00;99560.75;10247913;28;20114;-91
2021/12/08 18:50:54;;;;;;;14.70;6.20;;;;;;;-4.06;100.00;99322.53;10263253;28;20042;-91
2021/12/08 18:56:03;;;;;;;14.37;5.90;;;;;;;-5.90;100.00;99151.53;10241038;28;20054;-92
2021/12/08 19:01:27;;;;;;;8.93;5.00;;;;;;;-6.42;100.00;99079.50;10231806;29;20075;-91
2021/12/08 19:06:33;;;;;;;13.87;6.20;;;;;;;-5.56;100.00;99053.50;10262448;28;20442;-92
2021/12/08 19:11:48;;;;;;;13.23;5.97;;;;;;;-6.31;100.00;99141.41;10263915;28;20066;-93
2021/12/08 19:23:07;;;;;;;13.13;7.27;;;;;;;-6.43;100.00;99116.13;10167446;29;20032;-91
2021/12/08 19:28:23;;;;;;;;;;;;;;;;;;;;;
2021/12/08 19:33:38;;;;;;;11.50;6.80;;;;;;;-3.29;100.00;99751.22;10280520;28;20037;-92
2021/12/08 19:38:53;;;;;;;17.73;7.40;;;;;;;-5.53;100.00;99374.03;10254072;28;20553;-92
2021/12/08 19:44:11;;;;;;;24.90;7.83;;;;;;;-6.90;100.00;99102.16;10264364;28;20061;-92
2021/12/08 19:49:19;;;;;;;15.70;7.30;;;;;;;-6.99;100.00;99099.75;10264264;28;20487;-92
2021/12/08 19:54:47;;;;;;;15.67;7.27;;;;;;;-6.30;100.00;99239.50;10261189;28;20055;-93
2021/12/08 20:00:28;;;;;;;;;;;;;;;;;;;;;
2021/12/08 20:06:03;;;;;;;17.57;7.70;;;;;;;-3.74;100.00;99590.00;10267299;28;20062;-92
2021/12/08 20:11:48;;;;;;;19.17;8.83;;;;;;;-6.46;100.00;99320.00;10255777;28;20085;-91
2021/12/08 20:16:48;;;;;;;19.73;9.30;;;;;;;-4.82;100.00;99413.66;10268238;28;20039;-91
2021/12/08 20:22:15;;;;;;;20.43;7.90;;;;;;;-7.21;100.00;99217.34;10245777;28;20383;-93
2021/12/08 20:27:29;;;;;;;18.95;8.98;;;;;;;-4.99;100.00;99448.78;10247352;28;20046;-93
2021/12/08 20:32:39;;;;;;;23.10;8.67;;;;;;;-6.61;100.00;99328.00;10279910;28;20037;-92
2021/12/08 20:37:46;;;;;;;19.10;8.33;;;;;;;-8.54;100.00;98988.00;10237224;28;20447;-94
2021/12/08 20:43:35;;;;;;;;;;;;;;;;;;;;;
2021/12/08 20:55:33;;;;;;;;;;;;;;;;;;;;;
2021/12/08 21:01:10;;;;;;;19.83;8.70;;;;;;;-2.96;100.00;100007.38;10269107;28;20126;-92
2021/12/08 21:06:24;;;;;;;;;;;;;;;;;;;;;
2021/12/08 21:11:48;;;;;;;30.90;9.73;;;;;;;-6.81;100.00;99102.91;10270216;28;20543;-93
2021/12/08 21:17:14;;;;;;;17.13;9.27;;;;;;;-3.10;100.00;99904.09;10249783;28;20038;-93
2021/12/08 21:22:46;;;;;;;16.83;7.70;;;;;;;-5.25;100.00;99435.03;10207060;28;20043;-91
2021/12/08 21:27:58;;;;;;;24.30;9.93;;;;;;;-5.34;100.00;99477.22;10266543;28;20045;-92
2021/12/08 21:33:03;;;;;;;24.37;11.10;;;;;;;-4.50;100.00;99684.47;10266639;28;20511;-91
2021/12/08 21:38:20;;;;;;;24.50;9.83;;;;;;;-3.37;100.00;99740.59;10249849;28;20038;-93
2021/12/08 21:43:22;;;;;;;18.45;8.93;;;;;;;-5.35;100.00;99535.41;10252038;28;20461;-92
2021/12/08 21:48:25;;;;;;;18.97;9.50;;;;;;;-6.07;100.00;99485.03;10249132;28;20039;-90
2021/12/08 21:53:26;;;;;;;22.60;10.27;;;;;;;-2.51;100.00;100031.56;10249326;28;20038;-92
2021/12/08 21:58:36;;;;;;;18.23;9.90;;;;;;;-4.92;100.00;99639.44;10251250;28;20043;-91
2021/12/08 22:03:37;;;;;;;26.97;10.67;;;;;;;-5.45;100.00;99500.00;10265026;28;20051;-91
2021/12/08 22:08:37;;;;;;;25.00;10.53;;;;;;;-3.46;100.00;99990.13;10265198;28;20089;-93
2021/12/08 22:13:38;;;;;;;22.87;11.50;;;;;;;-4.96;100.00;99538.81;10264871;28;20030;-91
2021/12/08 22:18:39;;;;;;;19.03;10.67;;;;;;;-5.74;100.00;99479.34;10248826;28;20360;-91
2021/12/08 22:23:40;;;;;;;26.27;10.53;;;;;;;-2.44;100.00;99973.16;10264234;28;20031;-92
2021/12/08 22:28:44;;;;;;;26.33;11.20;;;;;;;-3.66;100.00;99769.25;10264238;28;20118;-92
2021/12/08 22:33:48;;;;;;;21.90;10.33;;;;;;;-7.31;100.00;99342.41;10263882;28;20031;-92
2021/12/08 22:38:49;;;;;;;24.13;11.50;;;;;;;-7.21;100.00;99284.19;10247416;28;20455;-91
2021/12/08 22:43:49;;;;;;;27.30;13.53;;;;;;;-5.83;100.00;99421.47;10263205;28;20058;-91
2021/12/08 22:48:52;;;;;;;24.87;12.30;;;;;;;-5.03;100.00;99755.31;10263215;28;20026;-91
2021/12/08 22:53:54;;;;;;;24.03;11.93;;;;;;;-4.89;100.00;99519.09;10244175;28;20078;-91
2021/12/08 22:58:55;;;;;;;27.37;12.20;;;;;;;-8.61;100.00;99003.06;10222390;29;20043;-90
2021/12/08 23:03:56;;;;;;;26.13;11.70;;;;;;;-4.80;100.00;99733.78;10222258;29;20031;-91
2021/12/08 23:08:56;;;;;;;23.33;12.10;;;;;;;-7.56;100.00;99200.91;10246639;28;20141;-90
2021/12/08 23:13:57;;;;;;;28.57;13.53;;;;;;;-7.65;100.00;99172.56;10262198;28;20126;-90
2021/12/08 23:19:00;;;;;;;28.67;13.53;;;;;;;-5.90;100.00;99454.34;10262003;28;20030;-90
2021/12/08 23:24:01;;;;;;;24.13;14.00;;;;;;;-3.34;100.00;99924.06;10261493;28;20117;-90
2021/12/08 23:29:04;;;;;;;32.77;14.50;;;;;;;-4.33;100.00;99698.53;10245973;28;20394;-90
2021/12/08 23:34:06;;;;;;;25.37;13.13;;;;;;;-3.97;100.00;99729.16;10262119;28;20077;-90
2021/12/08 23:39:09;;;;;;;26.00;12.97;;;;;;;-6.37;100.00;99401.91;10261338;28;20513;-89
2021/12/08 23:44:10;;;;;;;25.80;13.37;;;;;;;-4.10;100.00;99797.84;10247521;28;20034;-90
2021/12/08 23:49:10;;;;;;;34.40;13.83;;;;;;;-4.10;100.00;99864.22;10244765;28;20062;-88
2021/12/08 23:54:11;;;;;;;29.53;13.90;;;;;;;-2.88;100.00;100009.97;10244322;28;20490;-89
2021/12/08 23:59:17;;;;;;;34.73;14.23;;;;;;;-6.98;100.00;99535.66;10259650;28;20145;-89
